Huvudsida
METAR-TAF:

METAR-TAF

Flygplatser :

Al Wajh, Saudiarabien

latitud: 26-12N, longitud: 036-28E, höjd: 20 m

Aktuellt väderrapport

Denna rapport gjordes för 56 minuter sedan, klockan 07:00 UTC
Vind 5 kt från nord/nordväst
Temperatur 25°C
Fuktighet 32%
Tryck 1016 hPa
Sikt 10 km eller mer
Inga moln under 1 500 m eller inga cumulonimbus

METAR: OEWJ 250700Z 33005KT CAVOK 25/07 Q1016 NOSIG

Tid: 10:56 (07:56 UTC)

Väderprognos

Denna rapport gjordes för 8 timmar och 56 minuter sedan, klockan 23:00 UTC
Prognos gäller från 25 kl. 00 UTC till 26 kl. 06 UTC
Vind 8 kt från nord
Sikt 10 km eller mer
Inga moln under 1 500 m eller inga cumulonimbus
Blir
från 25 kl. 06 UTC till 25 kl. 08 UTC
Vind 14 kt från väst/nordväst

TAF: OEWJ 242300Z 2500/2606 35008KT CAVOK BECMG 2506/2508 29014KT

Aktuella väderrapporter och prognoser från 4000 flygplatser (METAR- och TAF-rapporter).

De tillgängliga stationerna syns som gula och röda prickar på kartan.

För musen över prickarna för att se namnen på stationerna.

Klicka sedan för att få väderrapporter och prognoser.

För att ändra kartan: Klicka på de gröna knapparna med ett svart kors på för att zooma in; den gröna knappen med ett streck på för att zooma ut; eller på de gröna pilarna för angränsande kartor.


METAR-TAF: